Time;durP1;ratioP1;P1;durP2;ratioP2;P2;SDS_P1;SDS_P2;PMS_P1;PMS_P2;Temp;Humidity;BMP_temperature;BMP_pressure;BME280_temperature;BME280_humidity;BME280_pressure;Samples;Min_cycle;Max_cycle;Signal;HPM_P1;HPM_P2
2021/10/01 06:00:18;;;;;;;;;;;16.50;99.90;;;;;;5949511;23;19973;-77
2021/10/01 06:02:46;;;;;;;;;;;16.60;99.90;;;;;;4914850;29;19955;-78
2021/10/01 06:05:13;;;;;;;;;;;16.60;99.90;;;;;;4914278;29;19927;-77
2021/10/01 06:07:40;;;;;;;;;;;16.60;99.90;;;;;;4900863;29;19927;-77
2021/10/01 06:10:08;;;;;;;;;;;16.60;99.90;;;;;;4909322;29;19927;-77
2021/10/01 06:12:35;;;;;;;;;;;16.60;99.90;;;;;;4908318;29;19977;-77
2021/10/01 06:15:02;;;;;;;;;;;16.60;99.90;;;;;;4910265;29;20322;-79
2021/10/01 06:17:29;;;;;;;;;;;16.60;99.90;;;;;;4910238;29;19923;-77
2021/10/01 06:19:56;;;;;;;;;;;16.60;99.90;;;;;;4912741;29;19950;-76
2021/10/01 06:22:23;;;;;;;;;;;16.70;99.90;;;;;;4913557;29;19959;-77
2021/10/01 06:24:49;;;;;;;;;;;16.70;99.90;;;;;;4914789;29;19985;-78
2021/10/01 06:27:18;;;;;;;;;;;16.70;99.90;;;;;;4912921;29;19923;-78
2021/10/01 06:29:46;;;;;;;;;;;16.70;99.90;;;;;;4913144;29;20387;-78
2021/10/01 06:32:13;;;;;;;;;;;16.70;99.90;;;;;;4912494;29;19923;-78
2021/10/01 06:34:40;;;;;;;;;;;16.70;99.90;;;;;;4913543;29;19929;-78
2021/10/01 06:37:07;;;;;;;;;;;16.70;99.90;;;;;;4914936;29;20383;-76
2021/10/01 06:39:33;;;;;;;;;;;16.70;99.90;;;;;;4912985;29;20388;-78
2021/10/01 06:42:00;;;;;;;;;;;16.70;99.90;;;;;;4912905;29;19923;-78
2021/10/01 06:44:31;;;;;;;;;;;16.70;99.90;;;;;;4912336;29;19962;-79
2021/10/01 08:19:53;;;;;;;;;;;16.90;99.90;;;;;;4903137;29;19990;-78
2021/10/01 08:22:20;;;;;;;;;;;17.00;99.90;;;;;;4915770;29;19927;-79
2021/10/01 08:24:47;;;;;;;;;;;16.90;99.90;;;;;;4916721;29;19922;-78
2021/10/01 08:27:15;;;;;;;;;;;16.90;99.90;;;;;;4915455;29;19979;-79
2021/10/01 08:29:42;;;;;;;;;;;16.90;99.90;;;;;;4916244;29;20347;-79
2021/10/01 08:32:09;;;;;;;;;;;16.90;99.90;;;;;;4915564;29;19950;-78
2021/10/01 08:34:38;;;;;;;;;;;16.90;99.90;;;;;;4899265;29;19983;-78
2021/10/01 08:37:06;;;;;;;;;;;17.00;99.90;;;;;;4916296;29;19927;-79
2021/10/01 08:39:32;;;;;;;;;;;17.00;99.90;;;;;;4915946;29;19923;-78
2021/10/01 08:42:04;;;;;;;;;;;17.00;99.90;;;;;;4915915;29;19927;-78
2021/10/01 08:44:32;;;;;;;;;;;17.00;99.90;;;;;;4915241;29;19923;-78
2021/10/01 08:47:00;;;;;;;;;;;17.00;99.90;;;;;;4916066;29;19978;-78
2021/10/01 08:49:28;;;;;;;;;;;17.00;99.90;;;;;;4915284;29;19958;-78
2021/10/01 08:51:55;;;;;;;;;;;17.10;99.90;;;;;;4914571;29;19927;-78
2021/10/01 08:54:22;;;;;;;;;;;17.10;99.90;;;;;;4914873;29;19931;-78
2021/10/01 08:56:49;;;;;;;;;;;17.10;99.90;;;;;;4915413;29;20439;-79
2021/10/01 08:59:16;;;;;;;;;;;17.20;99.90;;;;;;4915535;29;20304;-78
2021/10/01 09:01:42;;;;;;;;;;;17.20;99.90;;;;;;4900733;29;19923;-78
2021/10/01 09:04:10;;;;;;;;;;;17.20;99.90;;;;;;4911623;29;20352;-78
2021/10/01 09:06:41;;;;;;;;;;;17.40;99.90;;;;;;4899668;29;19927;-78
2021/10/01 09:09:09;;;;;;;;;;;17.50;99.90;;;;;;4914430;29;19947;-78
2021/10/01 09:11:38;;;;;;;;;;;17.50;99.90;;;;;;4914989;29;20403;-78
2021/10/01 09:14:10;;;;;;;;;;;17.50;99.90;;;;;;4915112;29;19931;-79
2021/10/01 09:16:38;;;;;;;;;;;17.50;99.90;;;;;;4915763;29;19938;-78
2021/10/01 09:19:07;;;;;;;;;;;17.40;99.90;;;;;;4915512;29;19931;-77
2021/10/01 09:21:41;;;;;;;;;;;17.30;99.90;;;;;;4914947;29;19923;-78
2021/10/01 09:24:10;;;;;;;;;;;17.30;99.90;;;;;;4914471;29;19979;-79
2021/10/01 09:26:44;;;;;;;;;;;17.30;99.90;;;;;;4915058;29;19978;-78
2021/10/01 09:29:15;;;;;;;;;;;17.30;99.90;;;;;;4914588;29;20403;-78
2021/10/01 09:31:43;;;;;;;;;;;17.50;99.90;;;;;;4900201;29;19946;-78
2021/10/01 09:34:12;;;;;;;;;;;17.50;99.90;;;;;;4911737;29;19923;-78
2021/10/01 09:36:39;;;;;;;;;;;17.60;99.90;;;;;;4915092;29;19923;-79
2021/10/01 09:39:07;;;;;;;;;;;17.60;99.90;;;;;;4914198;29;20378;-79
2021/10/01 09:41:36;;;;;;;;;;;17.60;99.90;;;;;;4914681;29;19927;-78
2021/10/01 09:44:10;;;;;;;;;;;17.50;99.90;;;;;;4914308;29;19923;-78
2021/10/01 09:46:39;;;;;;;;;;;17.50;99.90;;;;;;4914957;29;20399;-78
2021/10/01 09:49:07;;;;;;;;;;;17.40;99.90;;;;;;4914929;29;19986;-78
2021/10/01 09:51:35;;;;;;;;;;;17.40;99.90;;;;;;4914602;29;20339;-78
2021/10/01 09:54:09;;;;;;;;;;;17.40;99.90;;;;;;4914388;29;19923;-79
2021/10/01 09:56:37;;;;;;;;;;;17.50;99.90;;;;;;4914390;29;19939;-78
2021/10/01 09:59:09;;;;;;;;;;;17.50;99.90;;;;;;4914748;29;19927;-78
2021/10/01 10:01:59;;;;;;;;;;;17.60;99.90;;;;;;4914499;29;20045;-78
2021/10/01 10:04:26;;;;;;;;;;;17.70;99.90;;;;;;4912075;29;20392;-79
2021/10/01 10:06:54;;;;;;;;;;;17.80;99.90;;;;;;4912742;29;19927;-78
2021/10/01 10:09:31;;;;;;;;;;;17.90;99.90;;;;;;4914040;29;20002;-78
2021/10/01 10:11:58;;;;;;;;;;;18.00;99.90;;;;;;4914328;29;20009;-78
2021/10/01 10:14:25;;;;;;;;;;;18.10;99.90;;;;;;4913697;29;19950;-78
2021/10/01 10:16:56;;;;;;;;;;;18.20;99.90;;;;;;4914552;29;19923;-79
2021/10/01 10:19:22;;;;;;;;;;;18.20;99.90;;;;;;4914357;29;19923;-78
2021/10/01 10:21:49;;;;;;;;;;;18.20;99.90;;;;;;4914283;29;20368;-78
2021/10/01 10:24:16;;;;;;;;;;;18.20;99.90;;;;;;4913553;29;19989;-79
2021/10/01 10:26:43;;;;;;;;;;;18.20;99.90;;;;;;4914344;29;19970;-79
2021/10/01 10:29:12;;;;;;;;;;;18.20;99.90;;;;;;4913334;29;19923;-79
2021/10/01 10:31:39;;;;;;;;;;;18.10;99.90;;;;;;4914225;29;19995;-79
2021/10/01 10:34:23;;;;;;;;;;;18.10;99.90;;;;;;4914155;29;19927;-78
2021/10/01 10:37:03;;;;;;;;;;;18.00;99.90;;;;;;4913977;29;19923;-79
2021/10/01 10:39:34;;;;;;;;;;;17.90;99.90;;;;;;4913667;29;19950;-79
2021/10/01 10:42:00;;;;;;;;;;;17.90;99.90;;;;;;4913768;29;19933;-78
2021/10/01 10:44:47;;;;;;;;;;;17.90;99.90;;;;;;4913322;29;19923;-79
2021/10/01 10:47:32;;;;;;;;;;;17.80;99.90;;;;;;4913361;29;19927;-78
2021/10/01 10:50:18;;;;;;;;;;;17.90;99.90;;;;;;4900720;29;19923;-79
2021/10/01 10:53:04;;;;;;;;;;;17.90;99.90;;;;;;4898676;29;19927;-80
2021/10/01 10:55:31;;;;;;;;;;;17.80;99.90;;;;;;4904888;29;19923;-79
2021/10/01 10:57:58;;;;;;;;;;;17.80;99.90;;;;;;4909364;29;19927;-78
2021/10/01 11:00:29;;;;;;;;;;;17.80;99.90;;;;;;4901234;29;20455;-78
2021/10/01 11:03:17;;;;;;;;;;;17.80;99.90;;;;;;4904134;29;20348;-78
2021/10/01 11:05:45;;;;;;;;;;;17.70;99.90;;;;;;4907140;29;19927;-79
2021/10/01 11:08:22;;;;;;;;;;;17.70;99.90;;;;;;4903196;29;19927;-79
2021/10/01 11:10:50;;;;;;;;;;;17.60;99.90;;;;;;4902713;29;20010;-77
2021/10/01 11:13:23;;;;;;;;;;;17.70;99.90;;;;;;4909685;29;19987;-78
2021/10/01 11:18:34;;;;;;;;;;;17.70;99.90;;;;;;4909108;29;19923;-78
2021/10/01 11:21:22;;;;;;;;;;;17.80;99.90;;;;;;4892817;29;19949;-79
2021/10/01 11:24:04;;;;;;;;;;;17.80;99.90;;;;;;4901015;29;19926;-78
2021/10/01 11:26:37;;;;;;;;;;;17.80;99.90;;;;;;4911581;29;19931;-79
2021/10/01 11:29:05;;;;;;;;;;;17.80;99.90;;;;;;4910441;29;19982;-80
2021/10/01 11:31:38;;;;;;;;;;;17.80;99.90;;;;;;4911934;29;19923;-78
2021/10/01 11:34:06;;;;;;;;;;;17.90;99.90;;;;;;4913348;29;20412;-78
2021/10/01 11:36:37;;;;;;;;;;;17.90;99.90;;;;;;4911873;29;19974;-79
2021/10/01 11:39:08;;;;;;;;;;;17.90;99.90;;;;;;4911788;29;20646;-78
2021/10/01 11:41:45;;;;;;;;;;;17.80;99.90;;;;;;4911721;29;20435;-78
2021/10/01 11:44:13;;;;;;;;;;;17.80;99.90;;;;;;4911260;29;19924;-78
2021/10/01 11:46:45;;;;;;;;;;;17.70;99.90;;;;;;4911751;29;19923;-79
2021/10/01 11:49:19;;;;;;;;;;;17.60;99.90;;;;;;4909284;29;19923;-80
2021/10/01 11:52:01;;;;;;;;;;;17.50;99.90;;;;;;4909986;29;19934;-79
2021/10/01 11:54:28;;;;;;;;;;;17.50;99.90;;;;;;4911154;29;19923;-79
2021/10/01 11:56:56;;;;;;;;;;;17.40;99.90;;;;;;4911675;29;19923;-78
2021/10/01 11:59:25;;;;;;;;;;;17.40;99.90;;;;;;4911410;29;22439;-79
2021/10/01 12:01:56;;;;;;;;;;;17.50;99.90;;;;;;4912853;29;19979;-79
2021/10/01 12:04:33;;;;;;;;;;;17.50;99.90;;;;;;4912067;29;19927;-79
2021/10/01 12:07:04;;;;;;;;;;;17.60;99.90;;;;;;4912314;29;19982;-78
2021/10/01 12:09:31;;;;;;;;;;;17.70;99.90;;;;;;4916106;29;19990;-79
2021/10/01 12:12:04;;;;;;;;;;;17.80;99.90;;;;;;4916295;29;19923;-79
2021/10/01 12:14:31;;;;;;;;;;;17.80;99.90;;;;;;4915940;29;20322;-79
2021/10/01 12:17:09;;;;;;;;;;;17.90;99.90;;;;;;4916592;29;20005;-78
2021/10/01 12:19:36;;;;;;;;;;;17.90;99.90;;;;;;4915793;29;19933;-79
2021/10/01 12:22:06;;;;;;;;;;;17.90;99.90;;;;;;4916992;29;20396;-79
2021/10/01 12:24:55;;;;;;;;;;;17.90;99.90;;;;;;4915621;29;19923;-79
2021/10/01 12:27:34;;;;;;;;;;;17.80;99.90;;;;;;4915970;29;19927;-79
2021/10/01 12:30:03;;;;;;;;;;;17.90;99.90;;;;;;4915851;29;19927;-79
2021/10/01 12:32:30;;;;;;;;;;;18.10;99.90;;;;;;4915545;29;20495;-79
2021/10/01 12:34:59;;;;;;;;;;;18.10;99.90;;;;;;4916047;29;19931;-78
2021/10/01 12:37:29;;;;;;;;;;;18.10;99.90;;;;;;4915499;29;19970;-79
2021/10/01 12:39:59;;;;;;;;;;;18.10;99.90;;;;;;4914733;29;19926;-79
2021/10/01 12:42:30;;;;;;;;;;;18.10;99.90;;;;;;4915350;29;19930;-79
2021/10/01 12:45:01;;;;;;;;;;;18.10;99.90;;;;;;4915777;29;19931;-79
2021/10/01 12:47:28;;;;;;;;;;;18.00;99.90;;;;;;4915111;29;19930;-79
2021/10/01 12:49:58;;;;;;;;;;;18.00;99.90;;;;;;4915570;29;19978;-79
2021/10/01 12:52:26;;;;;;;;;;;17.90;99.90;;;;;;4915144;29;19931;-79
2021/10/01 12:54:55;;;;;;;;;;;17.80;99.90;;;;;;4916207;29;19974;-79
2021/10/01 12:57:21;;;;;;;;;;;17.70;99.90;;;;;;4915425;29;19923;-79
2021/10/01 13:00:11;;;;;;;;;;;17.70;99.90;;;;;;4915392;29;20396;-79
2021/10/01 13:02:40;;;;;;;;;;;17.60;99.90;;;;;;4909346;29;19979;-79
2021/10/01 13:05:14;;;;;;;;;;;17.60;99.90;;;;;;4914826;29;19929;-78
2021/10/01 13:07:45;;;;;;;;;;;17.60;99.90;;;;;;4915703;29;19974;-79
2021/10/01 13:10:14;;;;;;;;;;;17.70;99.90;;;;;;4894617;29;19983;-79
2021/10/01 13:12:48;;;;;;;;;;;17.70;99.90;;;;;;4915391;29;19958;-79
2021/10/01 13:15:15;;;;;;;;;;;17.60;99.90;;;;;;4914905;29;19987;-78
2021/10/01 13:17:43;;;;;;;;;;;17.70;99.90;;;;;;4915212;29;19923;-79
2021/10/01 13:20:10;;;;;;;;;;;17.60;99.90;;;;;;4913744;29;19985;-78
2021/10/01 13:22:52;;;;;;;;;;;17.60;99.90;;;;;;4915688;29;19978;-79
2021/10/01 13:25:26;;;;;;;;;;;17.70;99.90;;;;;;4911805;29;19979;-78
2021/10/01 13:27:55;;;;;;;;;;;17.80;99.90;;;;;;4915508;29;20045;-80
2021/10/01 13:30:21;;;;;;;;;;;17.80;99.90;;;;;;4914208;29;19947;-79
2021/10/01 13:32:49;;;;;;;;;;;17.90;99.90;;;;;;4914855;29;19981;-79
2021/10/01 13:35:16;;;;;;;;;;;17.90;99.90;;;;;;4915077;29;19978;-78
2021/10/01 13:37:43;;;;;;;;;;;18.00;99.90;;;;;;4915046;29;19958;-79
2021/10/01 13:40:11;;;;;;;;;;;17.90;99.90;;;;;;4915261;29;19979;-79
2021/10/01 13:42:38;;;;;;;;;;;17.80;99.90;;;;;;4914731;29;19923;-78
2021/10/01 13:45:05;;;;;;;;;;;17.80;99.90;;;;;;4914276;29;19927;-78
2021/10/01 13:47:33;;;;;;;;;;;17.70;99.90;;;;;;4915303;29;20289;-79
2021/10/01 13:50:00;;;;;;;;;;;17.70;99.90;;;;;;4914844;29;19922;-79
2021/10/01 13:52:27;;;;;;;;;;;17.70;99.90;;;;;;4914219;29;19923;-79
2021/10/01 13:54:54;;;;;;;;;;;17.70;99.90;;;;;;4915190;29;19927;-79
2021/10/01 13:57:21;;;;;;;;;;;17.60;99.90;;;;;;4914311;29;19923;-79
2021/10/01 13:59:49;;;;;;;;;;;17.60;99.90;;;;;;4914680;29;20506;-79
2021/10/01 14:02:16;;;;;;;;;;;17.70;99.90;;;;;;4913055;29;19927;-79
2021/10/01 14:04:43;;;;;;;;;;;17.70;99.90;;;;;;4914583;29;20014;-79
2021/10/01 14:07:09;;;;;;;;;;;17.60;99.90;;;;;;4914293;29;19958;-78
2021/10/01 14:09:36;;;;;;;;;;;17.60;99.90;;;;;;4914629;29;20460;-79
2021/10/01 14:12:23;;;;;;;;;;;17.60;99.90;;;;;;4913878;29;20025;-80
2021/10/01 14:14:49;;;;;;;;;;;17.60;99.90;;;;;;4913538;29;20360;-79
2021/10/01 14:17:16;;;;;;;;;;;17.50;99.90;;;;;;4914044;29;19931;-80
2021/10/01 14:19:43;;;;;;;;;;;17.60;99.90;;;;;;4914680;29;19931;-77
2021/10/01 14:22:09;;;;;;;;;;;17.50;99.90;;;;;;4914119;29;19973;-79
2021/10/01 14:24:37;;;;;;;;;;;17.50;99.90;;;;;;4914402;29;19927;-80
2021/10/01 14:27:23;;;;;;;;;;;17.50;99.90;;;;;;4914025;29;22905;-79
2021/10/01 14:29:51;;;;;;;;;;;17.50;99.90;;;;;;4913368;29;20344;-79
2021/10/01 14:32:19;;;;;;;;;;;17.40;99.90;;;;;;4913085;29;19970;-79
2021/10/01 14:34:46;;;;;;;;;;;17.40;99.90;;;;;;4899083;29;19927;-79
2021/10/01 14:37:12;;;;;;;;;;;17.50;99.90;;;;;;4910594;29;20561;-79
2021/10/01 14:39:39;;;;;;;;;;;17.40;99.90;;;;;;4914180;29;19926;-79
2021/10/01 14:42:06;;;;;;;;;;;17.30;99.90;;;;;;4913171;29;19932;-79
2021/10/01 14:44:33;;;;;;;;;;;17.30;99.90;;;;;;4913610;29;20014;-79
2021/10/01 14:47:00;;;;;;;;;;;17.30;99.90;;;;;;4913588;29;19929;-79
2021/10/01 14:49:26;;;;;;;;;;;17.20;99.90;;;;;;4913338;29;19927;-78
2021/10/01 14:51:53;;;;;;;;;;;17.10;99.90;;;;;;4914420;29;19927;-79
2021/10/01 14:54:20;;;;;;;;;;;17.10;99.90;;;;;;4913061;29;20456;-79
2021/10/01 14:56:47;;;;;;;;;;;17.00;99.90;;;;;;4913119;29;20451;-79
2021/10/01 14:59:13;;;;;;;;;;;16.90;99.90;;;;;;4913303;29;19971;-79
2021/10/01 15:01:40;;;;;;;;;;;17.00;99.90;;;;;;4913600;29;19971;-78
2021/10/01 15:04:07;;;;;;;;;;;16.90;99.90;;;;;;4913665;29;20037;-78
2021/10/01 15:06:34;;;;;;;;;;;16.90;99.90;;;;;;4913530;29;19923;-79
2021/10/01 15:09:00;;;;;;;;;;;16.90;99.90;;;;;;4913804;29;19962;-80
2021/10/01 15:11:27;;;;;;;;;;;16.90;99.90;;;;;;4912538;29;19923;-78
2021/10/01 15:13:54;;;;;;;;;;;16.80;99.90;;;;;;4913462;29;19923;-79
2021/10/01 15:16:21;;;;;;;;;;;16.80;99.90;;;;;;4913038;29;19977;-79
2021/10/01 15:18:48;;;;;;;;;;;16.80;99.90;;;;;;4912863;29;19970;-80
2021/10/01 15:21:14;;;;;;;;;;;16.80;99.90;;;;;;4912919;29;19973;-79
2021/10/01 15:23:41;;;;;;;;;;;16.80;99.90;;;;;;4896661;29;19923;-78
2021/10/01 15:26:09;;;;;;;;;;;16.80;99.90;;;;;;4912416;29;20487;-79
2021/10/01 15:28:36;;;;;;;;;;;16.90;99.90;;;;;;4913070;29;19923;-79
2021/10/01 15:31:04;;;;;;;;;;;16.90;99.90;;;;;;4914112;29;20378;-79
2021/10/01 15:33:31;;;;;;;;;;;16.90;99.90;;;;;;4912926;29;19923;-79
2021/10/01 15:35:58;;;;;;;;;;;16.90;99.90;;;;;;4896566;29;19923;-79
2021/10/01 15:38:26;;;;;;;;;;;16.80;99.90;;;;;;4912527;29;19971;-79
2021/10/01 15:40:53;;;;;;;;;;;16.80;99.90;;;;;;4913146;29;19923;-79
2021/10/01 15:43:19;;;;;;;;;;;16.90;99.90;;;;;;4916028;29;19922;-79
2021/10/01 15:45:51;;;;;;;;;;;16.90;99.90;;;;;;4917624;29;19970;-79
2021/10/01 15:48:21;;;;;;;;;;;16.90;99.90;;;;;;4916287;29;21021;-79
2021/10/01 15:50:48;;;;;;;;;;;16.90;99.90;;;;;;4916848;29;19927;-79
2021/10/01 15:53:15;;;;;;;;;;;16.80;99.90;;;;;;4916849;29;19962;-79
2021/10/01 15:55:42;;;;;;;;;;;16.70;99.90;;;;;;4916801;29;19962;-79
2021/10/01 15:58:09;;;;;;;;;;;16.70;99.90;;;;;;4916892;29;20399;-79
2021/10/01 16:00:39;;;;;;;;;;;16.70;99.90;;;;;;4916050;29;19931;-79
2021/10/01 16:03:07;;;;;;;;;;;16.60;99.90;;;;;;4916386;29;19931;-79
2021/10/01 16:05:34;;;;;;;;;;;16.60;99.90;;;;;;4916401;29;19978;-79
2021/10/01 16:08:02;;;;;;;;;;;16.50;99.90;;;;;;4911076;29;20363;-79
2021/10/01 16:10:31;;;;;;;;;;;16.60;99.90;;;;;;4916296;29;19927;-79
2021/10/01 16:12:57;;;;;;;;;;;16.60;99.90;;;;;;4915383;29;20396;-79
2021/10/01 16:15:25;;;;;;;;;;;16.60;99.90;;;;;;4914111;29;20431;-77
2021/10/01 16:17:52;;;;;;;;;;;16.50;99.90;;;;;;4915751;29;19971;-79
2021/10/01 16:20:23;;;;;;;;;;;16.50;99.90;;;;;;4915201;29;20352;-80
2021/10/01 16:22:50;;;;;;;;;;;16.50;99.90;;;;;;4899162;29;19923;-79
2021/10/01 16:25:22;;;;;;;;;;;16.50;99.90;;;;;;4916169;29;19930;-80
2021/10/01 16:27:50;;;;;;;;;;;16.50;99.90;;;;;;4916224;29;19936;-81
2021/10/01 16:30:17;;;;;;;;;;;16.50;99.90;;;;;;4907771;29;19955;-82
2021/10/01 16:32:44;;;;;;;;;;;16.50;99.90;;;;;;4915271;29;19979;-79
2021/10/01 16:35:11;;;;;;;;;;;16.40;99.90;;;;;;4910787;29;20399;-79
2021/10/01 16:37:37;;;;;;;;;;;16.40;99.90;;;;;;4914035;29;19938;-79
2021/10/01 16:40:05;;;;;;;;;;;16.40;99.90;;;;;;4915017;29;19990;-78
2021/10/01 16:42:32;;;;;;;;;;;16.40;99.90;;;;;;4914660;29;20396;-79
2021/10/01 16:44:59;;;;;;;;;;;16.40;99.90;;;;;;4912334;29;20014;-80
2021/10/01 16:47:26;;;;;;;;;;;16.40;99.90;;;;;;4914205;29;20026;-79
2021/10/01 16:49:54;;;;;;;;;;;16.40;99.90;;;;;;4913915;29;20646;-79
2021/10/01 16:52:23;;;;;;;;;;;16.30;99.90;;;;;;4913965;29;19970;-79
2021/10/01 16:54:51;;;;;;;;;;;16.30;99.90;;;;;;4913540;29;19951;-78
2021/10/01 16:57:17;;;;;;;;;;;16.30;99.90;;;;;;4911654;29;19923;-80
2021/10/01 16:59:44;;;;;;;;;;;16.30;99.90;;;;;;4912647;29;20345;-80
2021/10/01 17:02:11;;;;;;;;;;;16.30;99.90;;;;;;4913895;29;20468;-80
2021/10/01 17:04:38;;;;;;;;;;;16.30;99.90;;;;;;4914945;29;19926;-79
2021/10/01 17:07:05;;;;;;;;;;;16.30;99.90;;;;;;4915130;29;20409;-79
2021/10/01 17:09:31;;;;;;;;;;;16.30;99.90;;;;;;4897810;29;19986;-80
2021/10/01 17:11:58;;;;;;;;;;;16.20;99.90;;;;;;4914563;29;19923;-79
2021/10/01 17:14:25;;;;;;;;;;;16.10;99.90;;;;;;4914073;29;20375;-80
2021/10/01 17:16:52;;;;;;;;;;;16.00;99.90;;;;;;4914165;29;19931;-79
2021/10/01 17:19:18;;;;;;;;;;;15.90;99.90;;;;;;4914295;29;20018;-85
2021/10/01 17:21:45;;;;;;;;;;;15.90;99.90;;;;;;4897734;29;19960;-80
2021/10/01 17:24:12;;;;;;;;;;;15.90;99.90;;;;;;4913848;29;20411;-81
2021/10/01 17:26:39;;;;;;;;;;;15.80;99.90;;;;;;4913502;29;19987;-80
2021/10/01 17:29:17;;;;;;;;;;;15.80;99.90;;;;;;4913465;29;19934;-80
2021/10/01 17:31:45;;;;;;;;;;;15.70;99.90;;;;;;4913452;29;19970;-79
2021/10/01 17:34:12;;;;;;;;;;;15.70;99.90;;;;;;4913093;29;20351;-80
2021/10/01 17:36:39;;;;;;;;;;;15.60;99.90;;;;;;4913181;29;20327;-79
2021/10/01 17:39:06;;;;;;;;;;;15.60;99.90;;;;;;4913621;29;20387;-79
2021/10/01 17:41:33;;;;;;;;;;;15.50;99.90;;;;;;4911780;29;19923;-79
2021/10/01 17:44:01;;;;;;;;;;;15.40;99.90;;;;;;4913747;29;19970;-83
2021/10/01 17:46:29;;;;;;;;;;;15.40;99.90;;;;;;4913213;29;19946;-80
2021/10/01 17:48:56;;;;;;;;;;;15.30;99.90;;;;;;4914627;29;19923;-81
2021/10/01 17:51:23;;;;;;;;;;;15.20;99.90;;;;;;4913112;29;19927;-81
2021/10/01 17:53:50;;;;;;;;;;;15.20;99.90;;;;;;4913635;29;19974;-81
2021/10/01 17:56:16;;;;;;;;;;;15.10;99.90;;;;;;4913397;29;19923;-81
2021/10/01 17:58:43;;;;;;;;;;;15.10;99.90;;;;;;4914107;29;19954;-80
2021/10/01 18:01:10;;;;;;;;;;;15.00;99.90;;;;;;4912708;29;19923;-80
2021/10/01 18:03:37;;;;;;;;;;;15.00;99.90;;;;;;4912624;29;19966;-80
2021/10/01 18:06:04;;;;;;;;;;;14.90;99.90;;;;;;4911381;29;19923;-80
2021/10/01 18:08:31;;;;;;;;;;;14.90;99.90;;;;;;4912777;29;19927;-79
2021/10/01 18:10:58;;;;;;;;;;;14.80;99.90;;;;;;4893470;29;20360;-80
2021/10/01 18:13:25;;;;;;;;;;;14.70;99.90;;;;;;4914467;29;19926;-79
2021/10/01 18:15:52;;;;;;;;;;;14.60;99.90;;;;;;4914465;29;19923;-79
2021/10/01 18:18:19;;;;;;;;;;;14.60;99.90;;;;;;4913209;29;19927;-80
2021/10/01 18:20:46;;;;;;;;;;;14.50;99.90;;;;;;4913565;29;19962;-80
2021/10/01 18:23:13;;;;;;;;;;;14.50;99.90;;;;;;4913095;29;19930;-79
2021/10/01 18:25:45;;;;;;;;;;;14.40;99.90;;;;;;4912323;29;20836;-80
2021/10/01 18:28:12;;;;;;;;;;;14.30;99.90;;;;;;4913901;29;20002;-80
2021/10/01 18:30:38;;;;;;;;;;;14.20;99.90;;;;;;4913112;29;19974;-80
2021/10/01 18:33:05;;;;;;;;;;;14.10;99.90;;;;;;4913308;29;19931;-79
2021/10/01 18:35:32;;;;;;;;;;;14.10;99.90;;;;;;4913679;29;19978;-78
2021/10/01 18:37:59;;;;;;;;;;;14.00;99.90;;;;;;4913632;29;19922;-78
2021/10/01 18:40:26;;;;;;;;;;;13.90;99.90;;;;;;4912964;29;19970;-79
2021/10/01 18:42:52;;;;;;;;;;;13.90;99.90;;;;;;4908535;29;19923;-79
2021/10/01 18:45:19;;;;;;;;;;;13.80;99.90;;;;;;4912748;29;20312;-78
2021/10/01 18:47:46;;;;;;;;;;;13.70;99.90;;;;;;4912999;29;20547;-79
2021/10/01 18:50:13;;;;;;;;;;;13.70;99.90;;;;;;4912218;29;20034;-79
2021/10/01 18:52:40;;;;;;;;;;;13.70;99.90;;;;;;4913348;29;19962;-78
2021/10/01 18:55:07;;;;;;;;;;;13.60;99.90;;;;;;4913217;29;19978;-80
2021/10/01 18:57:34;;;;;;;;;;;13.60;99.90;;;;;;4912795;29;20337;-83
2021/10/01 19:00:01;;;;;;;;;;;13.50;99.90;;;;;;4909147;29;19958;-80
2021/10/01 19:02:31;;;;;;;;;;;13.50;99.90;;;;;;4911712;29;19930;-81
2021/10/01 19:04:58;;;;;;;;;;;13.40;99.90;;;;;;4911640;29;19931;-80
2021/10/01 19:07:24;;;;;;;;;;;13.40;99.90;;;;;;4911683;29;20284;-81
2021/10/01 19:09:51;;;;;;;;;;;13.40;99.90;;;;;;4911521;29;19971;-77
2021/10/01 19:12:18;;;;;;;;;;;13.30;99.90;;;;;;4894551;29;20347;-78
2021/10/01 19:14:45;;;;;;;;;;;13.30;99.90;;;;;;4911741;29;19927;-79
2021/10/01 19:17:12;;;;;;;;;;;13.30;99.90;;;;;;4912065;29;19930;-79
2021/10/01 19:19:40;;;;;;;;;;;13.30;99.90;;;;;;4912064;29;19931;-79
2021/10/01 19:22:09;;;;;;;;;;;13.30;99.90;;;;;;4912462;29;19927;-79
2021/10/01 19:24:43;;;;;;;;;;;13.30;99.90;;;;;;4912551;29;19923;-80
2021/10/01 19:27:26;;;;;;;;;;;13.30;99.90;;;;;;4912636;29;20372;-81
2021/10/01 19:32:39;;;;;;;;;;;13.30;99.90;;;;;;4909731;29;19923;-78
2021/10/01 19:35:07;;;;;;;;;;;13.20;99.90;;;;;;4911625;29;19966;-79
2021/10/01 19:37:33;;;;;;;;;;;13.20;99.90;;;;;;4912473;29;20014;-78
2021/10/01 19:40:04;;;;;;;;;;;13.20;99.90;;;;;;4910969;29;20420;-80
2021/10/01 19:42:31;;;;;;;;;;;13.20;99.90;;;;;;4910707;29;19974;-78
2021/10/01 19:44:59;;;;;;;;;;;13.10;99.90;;;;;;4911964;29;20421;-80
2021/10/01 19:47:26;;;;;;;;;;;13.10;99.90;;;;;;4910687;29;19955;-79
2021/10/01 19:49:52;;;;;;;;;;;13.10;99.90;;;;;;4907997;29;20420;-80
2021/10/01 19:52:19;;;;;;;;;;;13.10;99.90;;;;;;4911075;29;19923;-80
2021/10/01 19:54:46;;;;;;;;;;;13.00;99.90;;;;;;4911765;29;19927;-80
2021/10/01 19:57:13;;;;;;;;;;;13.00;99.90;;;;;;4904362;29;19923;-83
2021/10/01 19:59:46;;;;;;;;;;;12.90;99.90;;;;;;4908891;29;20356;-83
2021/10/01 20:02:16;;;;;;;;;;;12.90;99.90;;;;;;4898500;29;19930;-82
2021/10/01 20:04:43;;;;;;;;;;;12.90;99.90;;;;;;4896207;29;19986;-82
2021/10/01 20:07:10;;;;;;;;;;;12.90;99.90;;;;;;4902564;29;19987;-82
2021/10/01 20:09:37;;;;;;;;;;;12.80;99.90;;;;;;4908490;29;19931;-82
2021/10/01 20:12:04;;;;;;;;;;;12.80;99.90;;;;;;4905014;29;19923;-82
2021/10/01 20:14:30;;;;;;;;;;;12.80;99.90;;;;;;4907306;29;19978;-82
2021/10/01 20:16:59;;;;;;;;;;;12.80;99.90;;;;;;4893142;29;19931;-82
2021/10/01 20:46:59;;;;;;;;;;;12.40;99.90;;;;;;4895859;29;19966;-80
2021/10/01 20:49:32;;;;;;;;;;;12.40;99.90;;;;;;4897218;29;20467;-83
2021/10/01 20:51:59;;;;;;;;;;;12.40;99.90;;;;;;4897403;29;19987;-82
2021/10/01 20:54:29;;;;;;;;;;;12.40;99.90;;;;;;4881231;29;19946;-81
2021/10/01 21:46:23;;;;;;;;;;;11.80;99.90;;;;;;4776185;29;19975;-80
2021/10/01 21:48:50;;;;;;;;;;;11.70;99.90;;;;;;4779588;29;19968;-78
2021/10/01 21:51:17;;;;;;;;;;;11.70;99.90;;;;;;4812988;29;19929;-80
2021/10/01 21:53:44;;;;;;;;;;;11.70;99.90;;;;;;4814600;29;19991;-79
2021/10/01 21:56:12;;;;;;;;;;;11.60;99.90;;;;;;4815827;29;19928;-80
2021/10/01 21:58:41;;;;;;;;;;;11.70;99.90;;;;;;4817047;29;19968;-79
2021/10/01 22:01:08;;;;;;;;;;;11.70;99.90;;;;;;4811487;29;19972;-81
2021/10/01 22:08:59;;;;;;;;;;;11.80;99.90;;;;;;4816910;29;19960;-80
2021/10/01 22:22:12;;;;;;;;;;;11.90;99.90;;;;;;4842279;29;19927;-81
2021/10/01 22:24:40;;;;;;;;;;;11.90;99.90;;;;;;4891197;29;19934;-81
2021/10/01 22:27:08;;;;;;;;;;;11.90;99.90;;;;;;4891060;29;20475;-81
2021/10/01 22:29:38;;;;;;;;;;;11.90;99.90;;;;;;4893183;29;19923;-81
2021/10/01 22:32:05;;;;;;;;;;;11.90;99.90;;;;;;4883041;29;19966;-80
2021/10/01 22:34:32;;;;;;;;;;;11.90;99.90;;;;;;4886691;29;19979;-81
2021/10/01 22:36:59;;;;;;;;;;;11.90;99.90;;;;;;4893842;29;19928;-82
2021/10/01 22:39:31;;;;;;;;;;;11.90;99.90;;;;;;4891216;29;19975;-82
2021/10/01 22:42:02;;;;;;;;;;;11.80;99.90;;;;;;4890584;29;19971;-82
2021/10/01 22:44:29;;;;;;;;;;;11.80;99.90;;;;;;4889262;29;20006;-81
2021/10/01 22:46:56;;;;;;;;;;;11.80;99.90;;;;;;4890571;29;19931;-81
2021/10/01 22:49:23;;;;;;;;;;;11.80;99.90;;;;;;4893028;29;20464;-81
2021/10/01 22:51:49;;;;;;;;;;;11.70;99.90;;;;;;4891092;29;19927;-82
2021/10/01 22:54:17;;;;;;;;;;;11.70;99.90;;;;;;4891593;29;19979;-82
2021/10/01 22:56:44;;;;;;;;;;;11.80;99.90;;;;;;4891966;29;19952;-82
2021/10/01 22:59:11;;;;;;;;;;;11.80;99.90;;;;;;4891672;29;19932;-80
